Αρχική σελίδα
METAR-TAF:

METAR-TAF

Αεροδρόμια :

Πόλη του Κουβέιτ, Κουβέιτ

γεωγραφικό πλάτος: 29-13N, γεωγραφικό μήκος: 047-59E, υψόμετρο: 55 μ

Παρών καιρός

Η αναφορά έγινε 31 λεπτά πριν, στις 21:00 UTC
Άνεμος 10 kt από
Θερμοκρασία 34°C
Υγρασία 16%
Πίεση 1001 hPa
Ορατότητα: 5000 μ
Καθαρός ουρανός
(ασθενής) καταχνιά

METAR: OKBK 232100Z 32010KT 5000 -HZ SKC 34/05 Q1001 NOSIG

Χρόνος: 00:31 (21:31 UTC)

Πρόγνωση Καιρού

Η αναφορά έγινε 4 ώρες και 46 λεπτά πριν, στις 16:45 UTC
Η πρόγνωση ισχύει από τις 23 στις 18 UTC έως τις 24 στις 24 UTC
Άνεμος 12 kt από Δ/BΔ με ριπές μέχρι 25 kt
Ορατότητα: 6000 μ
Καθαρός ουρανός
Προσωρινά
από 23 στις 18 UTC έως τις 24 στις 03 UTC
Ορατότητα: 1200 μ
φυσώντας σκόνη

TAF: OKBK 231645Z 2318/2424 30012G25KT 6000 SKC TEMPO 2318/2403 1200 BLDU

Μετεωρολογικές αναφορές και προγνώσεις για περισσότερα από 4000 αεροδρόμια (δελτία METAR και TAF).

Οι διαθέσιμοι σταθμοί απεικονίζονται στο χάρτη με κίτρινες και κόκκινες κουκκίδες.

Μετακινήστε το ποντίκι πάνω από τις κουκκίδες για να δείτε το όνομα του σταθμού.

Στη συνέχεια, κάντε κλικ για να δείτε τις μετεωρολογικές αναφορές και τις προγνώσεις καιρού.

Για να αλλάξετε το χάρτη: κάντε κλικ στα πράσινα κουμπιά με τον μαύρο σταυρό για να ζουμάρετε, στο πράσινο κουμπί με την παύλα για να αφαιρέσετε το ζουμ ή στα πράσινα βέλη για να αντιπαραβάλλετε χάρτες.


METAR-TAF: